Time;durP1;ratioP1;P1;durP2;ratioP2;P2;SDS_P1;SDS_P2;PMS_P1;PMS_P2;Temp;Humidity;BMP_temperature;BMP_pressure;BME280_temperature;BME280_humidity;BME280_pressure;Samples;Min_cycle;Max_cycle;Signal;HPM_P1;HPM_P2
2023/01/26 00:01:14;;;;;;;25.00;16.50;;;;;;;1.32;79.42;99387.09;221142;1274;22526;-76
2023/01/26 00:06:18;;;;;;;25.00;17.60;;;;;;;1.30;79.22;99384.67;221538;1257;25342;-75
2023/01/26 00:11:30;;;;;;;24.70;16.60;;;;;;;1.29;79.52;99384.88;221275;1276;24262;-75
2023/01/26 00:16:36;;;;;;;21.70;15.60;;;;;;;1.22;79.03;99389.38;221449;1279;22555;-76
2023/01/26 00:21:40;;;;;;;22.30;15.50;;;;;;;1.08;78.92;99383.00;221438;1279;22740;-76
2023/01/26 00:26:47;;;;;;;23.20;15.50;;;;;;;1.04;78.85;99375.95;221368;1276;22793;-76
2023/01/26 00:31:56;;;;;;;24.00;15.90;;;;;;;1.04;79.02;99367.32;221408;1276;22515;-76
2023/01/26 00:36:59;;;;;;;24.60;17.00;;;;;;;1.05;79.50;99366.48;221218;1277;22669;-76
2023/01/26 00:42:08;;;;;;;25.10;17.40;;;;;;;1.06;79.42;99367.51;221515;1279;25247;-76
2023/01/26 00:47:18;;;;;;;26.80;17.80;;;;;;;1.07;79.52;99369.17;221370;1279;22551;-74
2023/01/26 00:52:24;;;;;;;22.70;15.60;;;;;;;1.09;79.56;99369.58;221252;1279;24414;-75
2023/01/26 00:57:30;;;;;;;25.30;16.80;;;;;;;0.99;79.12;99362.66;221434;1270;25383;-76
2023/01/26 01:02:32;;;;;;;28.00;17.20;;;;;;;0.91;79.51;99361.35;221416;1275;22553;-75
2023/01/26 01:07:38;;;;;;;26.50;17.60;;;;;;;0.91;79.36;99362.23;221310;1278;24196;-76
2023/01/26 01:12:41;;;;;;;22.20;14.70;;;;;;;0.91;79.68;99363.45;221288;1272;24340;-75
2023/01/26 01:17:43;;;;;;;26.30;15.80;;;;;;;0.84;79.26;99360.65;221409;1277;22802;-76
2023/01/26 01:22:46;;;;;;;30.20;18.10;;;;;;;0.75;79.29;99356.61;221795;1276;22722;-74
2023/01/26 01:28:11;;;;;;;28.10;16.60;;;;;;;0.74;79.74;99354.16;221252;1279;25038;-76
2023/01/26 01:33:14;;;;;;;25.80;16.30;;;;;;;0.76;79.78;99347.73;221196;1277;22574;-75
2023/01/26 01:38:20;;;;;;;27.10;17.00;;;;;;;0.73;79.72;99346.60;221173;1279;24130;-74
2023/01/26 01:43:29;;;;;;;28.60;17.60;;;;;;;0.66;79.67;99346.51;221317;1271;22596;-75
2023/01/26 01:48:49;;;;;;;28.10;17.30;;;;;;;0.60;79.71;99335.36;221375;1271;26111;-75
2023/01/26 01:53:55;;;;;;;31.60;19.10;;;;;;;0.58;80.09;99327.01;221378;1276;24357;-75
2023/01/26 01:59:00;;;;;;;33.10;21.30;;;;;;;0.62;80.71;99320.98;221512;1276;22539;-75
2023/01/26 02:04:07;;;;;;;30.90;18.70;;;;;;;0.71;80.67;99316.02;221345;1276;24389;-75
2023/01/26 02:10:21;;;;;;;31.90;19.10;;;;;;;0.73;80.04;99317.50;221544;1279;22581;-77
2023/01/26 02:15:09;;;;;;;33.90;18.60;;;;;;;0.67;80.31;99323.38;221468;1280;23674;-75
2023/01/26 02:20:49;;;;;;;31.60;19.70;;;;;;;0.63;80.29;99324.73;221473;1277;25290;-75
2023/01/26 02:26:07;;;;;;;32.70;18.80;;;;;;;0.60;80.46;99314.02;221393;1273;25428;-75
2023/01/26 02:31:11;;;;;;;28.10;16.60;;;;;;;0.55;80.37;99303.14;221489;1275;22647;-75
2023/01/26 02:36:24;;;;;;;27.30;16.30;;;;;;;0.55;80.48;99300.73;221468;1279;132416;-75
2023/01/26 02:46:55;;;;;;;33.30;19.20;;;;;;;0.59;80.69;99298.02;221472;1277;22556;-76
2023/01/26 02:51:57;;;;;;;35.50;19.90;;;;;;;0.57;80.91;99287.25;221300;1276;22540;-75
2023/01/26 02:57:06;;;;;;;37.70;20.40;;;;;;;0.58;81.02;99283.20;221290;1279;22616;-76
2023/01/26 03:02:11;;;;;;;33.10;19.50;;;;;;;0.59;80.96;99273.60;221418;1279;25059;-75
2023/01/26 03:07:16;;;;;;;29.80;18.40;;;;;;;0.59;81.04;99264.71;221301;1278;22591;-75
2023/01/26 03:12:19;;;;;;;33.30;18.90;;;;;;;0.61;81.10;99259.55;221358;1275;22579;-76
2023/01/26 03:17:21;;;;;;;33.30;19.50;;;;;;;0.62;81.13;99246.15;221394;1262;25351;-75
2023/01/26 03:27:52;;;;;;;32.80;19.90;;;;;;;0.68;81.12;99248.83;221251;1277;22580;-74
2023/01/26 03:32:58;;;;;;;28.70;17.80;;;;;;;0.69;81.22;99240.56;221443;1279;22605;-75
2023/01/26 03:38:05;;;;;;;34.80;20.30;;;;;;;0.70;81.02;99235.32;221481;1279;22536;-75
2023/01/26 03:59:52;;;;;;;33.10;20.10;;;;;;;0.69;81.11;99221.51;221428;1278;22557;-76
2023/01/26 04:10:31;;;;;;;27.60;17.90;;;;;;;0.66;81.13;99211.14;221502;1274;24228;-75
2023/01/26 04:21:32;;;;;;;38.00;21.00;;;;;;;0.75;81.46;99197.85;221350;1280;25371;-75
2023/01/26 04:26:50;;;;;;;;;;;;;;;0.75;81.41;99188.98;221261;1279;22731;-75
2023/01/26 04:32:03;;;;;;;39.50;23.30;;;;;;;0.74;81.33;99183.42;221372;1279;22621;-75
2023/01/26 04:37:13;;;;;;;38.80;22.50;;;;;;;0.75;81.53;99184.84;221591;1278;24111;-76
2023/01/26 04:42:23;;;;;;;43.20;24.00;;;;;;;0.74;81.37;99183.36;221388;1275;22598;-76
2023/01/26 04:47:32;;;;;;;41.20;24.90;;;;;;;0.73;81.60;99183.48;221294;1278;22663;-75
2023/01/26 04:52:35;;;;;;;33.90;20.50;;;;;;;0.73;81.45;99185.73;221617;1256;22534;-75
2023/01/26 04:57:37;;;;;;;30.10;18.90;;;;;;;0.69;81.41;99179.55;221281;1280;26555;-75
2023/01/26 05:02:40;;;;;;;38.10;21.30;;;;;;;0.67;81.56;99185.95;221291;1278;24261;-75
2023/01/26 05:07:49;;;;;;;34.70;20.90;;;;;;;0.67;81.48;99187.03;221474;1275;22673;-75
2023/01/26 05:12:56;;;;;;;40.70;23.00;;;;;;;0.65;81.33;99177.98;221427;1280;22615;-75
2023/01/26 05:18:18;;;;;;;41.70;24.10;;;;;;;0.64;81.64;99170.57;221420;1275;22536;-75
2023/01/26 05:23:31;;;;;;;48.10;25.50;;;;;;;0.64;81.47;99168.87;221466;1279;25415;-75
2023/01/26 05:29:09;;;;;;;46.00;26.40;;;;;;;0.64;81.70;99161.56;221378;1280;24357;-75
2023/01/26 05:34:14;;;;;;;42.70;24.40;;;;;;;0.65;81.76;99164.24;221670;1278;22667;-74
2023/01/26 05:39:25;;;;;;;38.90;22.00;;;;;;;0.68;81.57;99166.31;221455;1279;23810;-75
2023/01/26 05:44:34;;;;;;;39.70;23.90;;;;;;;0.70;81.73;99168.92;221320;1279;22536;-76
2023/01/26 05:49:46;;;;;;;46.40;26.60;;;;;;;0.74;81.70;99168.77;221435;1261;22534;-75
2023/01/26 05:54:53;;;;;;;47.10;27.20;;;;;;;0.76;81.71;99178.14;221360;1278;24218;-75
2023/01/26 06:00:03;;;;;;;38.90;23.50;;;;;;;0.79;81.88;99174.69;221440;1272;22760;-74
2023/01/26 06:05:14;;;;;;;38.50;23.30;;;;;;;0.79;81.52;99174.67;221409;1276;25291;-76
2023/01/26 06:10:19;;;;;;;33.50;22.50;;;;;;;0.77;81.51;99174.46;221196;1278;22543;-76
2023/01/26 06:15:32;;;;;;;68.10;40.40;;;;;;;0.79;81.49;99173.60;221228;1278;22543;-76
2023/01/26 06:20:35;;;;;;;39.20;23.00;;;;;;;0.79;81.34;99172.22;221335;1280;22524;-75
2023/01/26 06:25:42;;;;;;;33.60;22.40;;;;;;;0.79;81.52;99172.88;221275;1280;22536;-75
2023/01/26 06:31:03;;;;;;;37.90;23.80;;;;;;;0.81;81.62;99165.14;221493;1279;25451;-75
2023/01/26 06:36:12;;;;;;;39.60;23.80;;;;;;;0.84;81.63;99169.57;221551;1280;22530;-74
2023/01/26 06:41:16;;;;;;;38.80;24.40;;;;;;;0.88;81.45;99168.06;221489;1256;22548;-75
2023/01/26 06:46:20;;;;;;;39.60;24.10;;;;;;;0.92;81.57;99163.60;221353;1279;22634;-75
2023/01/26 06:52:01;;;;;;;36.10;23.40;;;;;;;0.93;81.25;99161.95;222040;1280;23008;-75
2023/01/26 06:57:54;;;;;;;35.10;22.40;;;;;;;0.96;81.21;99157.93;221424;1279;22613;-75
2023/01/26 07:03:23;;;;;;;40.90;24.30;;;;;;;0.99;81.09;99157.00;221791;1278;139410;-75
2023/01/26 07:08:26;;;;;;;39.30;24.90;;;;;;;1.04;81.53;99156.96;222002;1272;138241;-76
2023/01/26 07:13:34;;;;;;;41.20;26.30;;;;;;;1.10;81.69;99149.04;221908;1256;138225;-76
2023/01/26 07:18:37;;;;;;;42.40;25.40;;;;;;;1.17;81.31;99142.29;221723;1261;138414;-76
2023/01/26 07:23:40;;;;;;;44.70;28.20;;;;;;;1.19;81.33;99139.59;221976;1273;25498;-79
2023/01/26 07:29:03;;;;;;;41.00;25.70;;;;;;;1.23;81.42;99142.23;223133;1262;22623;-75
2023/01/26 07:34:25;;;;;;;44.10;26.60;;;;;;;1.27;81.25;99135.40;222731;1275;137946;-75
2023/01/26 07:39:31;;;;;;;42.40;26.30;;;;;;;1.37;81.52;99131.98;222128;1273;138215;-75
2023/01/26 07:44:36;;;;;;;40.20;26.30;;;;;;;1.49;81.41;99135.58;221524;1275;138304;-75
2023/01/26 07:49:39;;;;;;;41.20;26.30;;;;;;;1.57;81.87;99138.33;221470;1277;139598;-74
2023/01/26 07:54:44;;;;;;;43.40;25.90;;;;;;;1.65;81.72;99141.48;221555;1274;138394;-74
2023/01/26 07:59:55;;;;;;;40.30;26.80;;;;;;;1.70;81.40;99140.06;221846;1272;25394;-77
2023/01/26 08:05:04;;;;;;;41.40;26.20;;;;;;;1.79;81.57;99147.19;221473;1269;22540;-76
2023/01/26 08:10:06;;;;;;;36.60;23.60;;;;;;;1.87;81.22;99142.73;221554;1275;138368;-74
2023/01/26 08:15:10;;;;;;;39.10;24.40;;;;;;;1.89;81.01;99140.42;221766;1272;138925;-75
2023/01/26 08:20:12;;;;;;;39.60;25.70;;;;;;;1.93;81.21;99139.02;221508;1280;138316;-74
2023/01/26 08:25:18;;;;;;;41.10;27.00;;;;;;;2.04;81.14;99145.48;221473;1275;138827;-74
2023/01/26 08:30:24;;;;;;;40.10;25.00;;;;;;;2.13;81.25;99134.48;221599;1273;138732;-76
2023/01/26 08:35:30;;;;;;;32.10;21.50;;;;;;;2.20;81.00;99131.51;221422;1272;22566;-74
2023/01/26 08:40:33;;;;;;;36.10;22.30;;;;;;;2.29;80.64;99125.85;221835;1273;138432;-73
2023/01/26 08:45:36;;;;;;;38.00;21.90;;;;;;;2.39;80.80;99125.55;221463;1266;138370;-74
2023/01/26 08:50:40;;;;;;;35.90;21.20;;;;;;;2.51;80.37;99125.61;221422;1263;138253;-73
2023/01/26 08:55:44;;;;;;;32.70;21.60;;;;;;;2.55;80.07;99129.06;221426;1273;138342;-74
2023/01/26 09:00:49;;;;;;;33.40;22.60;;;;;;;2.54;79.58;99127.02;221684;1273;138413;-74
2023/01/26 09:05:55;;;;;;;33.10;20.70;;;;;;;2.62;79.42;99135.13;221760;1268;25304;-73
2023/01/26 09:10:58;;;;;;;28.80;19.00;;;;;;;2.68;79.72;99132.51;221547;1273;138389;-73
2023/01/26 09:16:05;;;;;;;29.80;19.90;;;;;;;2.70;79.03;99124.80;221707;1272;139639;-71
2023/01/26 09:21:11;;;;;;;33.60;20.70;;;;;;;2.70;78.77;99121.70;222267;1273;138860;-75
2023/01/26 09:26:13;;;;;;;31.20;22.00;;;;;;;2.72;79.10;99122.34;221401;1271;138225;-75
2023/01/26 09:31:16;;;;;;;34.20;22.00;;;;;;;2.83;79.43;99114.98;221725;1275;138294;-76
2023/01/26 09:36:18;;;;;;;32.30;21.90;;;;;;;2.97;79.29;99123.17;221771;1272;138758;-75
2023/01/26 09:41:47;;;;;;;33.60;22.60;;;;;;;3.06;78.95;99122.30;221565;1270;24440;-75
2023/01/26 09:47:26;;;;;;;33.30;22.10;;;;;;;3.12;78.96;99122.42;221794;1269;138002;-83
2023/01/26 09:52:37;;;;;;;39.70;25.50;;;;;;;3.14;78.62;99115.99;221636;1275;138180;-76
2023/01/26 09:57:54;;;;;;;39.20;24.70;;;;;;;3.18;78.61;99109.03;221788;1267;138281;-74
2023/01/26 10:03:25;;;;;;;49.50;32.10;;;;;;;3.19;78.57;99102.64;221225;1280;138315;-73
2023/01/26 10:08:31;;;;;;;37.00;24.60;;;;;;;3.28;78.50;99097.38;221694;1273;138320;-74
2023/01/26 10:13:36;;;;;;;38.00;24.90;;;;;;;3.23;77.85;99096.08;221608;1280;138851;-74
2023/01/26 10:19:01;;;;;;;37.30;25.60;;;;;;;3.19;78.28;99097.94;221547;1276;138385;-74
2023/01/26 10:24:04;;;;;;;38.00;23.50;;;;;;;3.24;78.51;99091.99;221430;1273;138406;-74
2023/01/26 10:29:15;;;;;;;38.40;24.70;;;;;;;3.32;78.70;99089.00;221347;1276;25281;-76
2023/01/26 10:34:26;;;;;;;40.50;25.40;;;;;;;3.36;78.42;99087.95;221375;1280;137868;-73
2023/01/26 10:39:28;;;;;;;38.40;25.10;;;;;;;3.36;78.47;99081.47;221248;1276;138632;-74
2023/01/26 10:44:34;;;;;;;37.30;24.30;;;;;;;3.39;78.31;99082.13;221543;1274;139241;-74
2023/01/26 10:49:37;;;;;;;37.00;24.90;;;;;;;3.40;78.06;99080.27;221299;1273;138713;-74
2023/01/26 10:54:42;;;;;;;36.30;23.00;;;;;;;3.36;77.69;99081.30;221385;1280;138831;-73
2023/01/26 10:59:57;;;;;;;37.20;24.30;;;;;;;3.34;77.61;99068.66;221549;1276;24229;-75
2023/01/26 11:05:24;;;;;;;38.00;24.20;;;;;;;3.30;77.24;99061.87;221731;1273;22543;-75
2023/01/26 11:10:33;;;;;;;35.60;24.60;;;;;;;3.28;77.42;99057.16;221493;1273;137908;-75
2023/01/26 11:15:46;;;;;;;35.80;23.80;;;;;;;3.25;77.01;99051.90;221619;1273;138349;-76
2023/01/26 11:21:15;;;;;;;37.50;25.20;;;;;;;3.21;77.36;99054.16;221702;1270;139460;-75
2023/01/26 11:26:34;;;;;;;40.20;24.90;;;;;;;3.20;77.46;99045.84;221694;1272;139383;-74
2023/01/26 11:32:27;;;;;;;37.10;24.10;;;;;;;3.15;77.47;99042.96;221482;1280;139033;-75
2023/01/26 11:37:37;;;;;;;39.70;25.30;;;;;;;3.13;77.50;99043.65;221359;1280;138957;-75
2023/01/26 11:42:49;;;;;;;38.90;25.50;;;;;;;3.14;77.37;99035.23;221454;1274;138499;-74
2023/01/26 11:48:17;;;;;;;39.90;26.30;;;;;;;3.19;77.68;99022.77;221528;1273;22550;-74
2023/01/26 11:54:05;;;;;;;36.60;24.50;;;;;;;3.22;77.70;99019.41;221781;1276;25606;-74
2023/01/26 11:59:43;;;;;;;39.20;26.20;;;;;;;3.20;77.37;99015.89;220570;1281;22567;-76
2023/01/26 12:04:46;;;;;;;34.20;23.50;;;;;;;3.22;77.63;99005.34;221418;1267;138360;-73
2023/01/26 12:09:51;;;;;;;38.00;24.40;;;;;;;3.17;77.42;98999.11;221399;1259;138227;-74
2023/01/26 12:15:12;;;;;;;38.70;26.30;;;;;;;3.14;77.41;98992.56;221585;1275;139862;-73
2023/01/26 12:20:37;;;;;;;38.70;25.20;;;;;;;3.13;77.40;98986.11;221326;1274;138953;-75
2023/01/26 12:26:18;;;;;;;39.50;26.30;;;;;;;3.10;77.43;98972.99;221616;1273;139493;-73
2023/01/26 12:31:54;;;;;;;37.60;23.50;;;;;;;3.05;77.02;98978.80;221243;1273;138419;-75
2023/01/26 12:37:22;;;;;;;38.80;25.40;;;;;;;3.05;77.60;98971.47;221513;1273;138290;-75
2023/01/26 12:42:56;;;;;;;41.70;26.30;;;;;;;3.07;77.50;98964.00;221829;1273;138242;-76
2023/01/26 12:48:37;;;;;;;35.80;25.60;;;;;;;3.13;77.78;98961.48;221711;1273;24238;-76
2023/01/26 12:53:40;;;;;;;40.80;25.70;;;;;;;3.21;77.33;98955.95;221052;1280;22669;-76
2023/01/26 12:58:48;;;;;;;43.90;28.10;;;;;;;3.27;77.40;98956.98;221802;1273;138105;-78
2023/01/26 13:04:09;;;;;;;38.50;27.20;;;;;;;3.26;77.23;98961.80;221891;1270;138942;-75
2023/01/26 13:09:29;;;;;;;40.60;27.60;;;;;;;3.22;77.06;98959.86;221411;1267;138349;-77
2023/01/26 13:14:36;;;;;;;38.70;26.10;;;;;;;3.23;77.54;98963.48;221532;1272;138273;-75
2023/01/26 13:19:53;;;;;;;42.40;27.50;;;;;;;3.16;77.15;98967.45;221183;1281;138356;-76
2023/01/26 13:25:15;;;;;;;39.00;25.80;;;;;;;3.11;77.04;98964.16;221295;1273;138277;-76
2023/01/26 13:30:45;;;;;;;41.60;27.40;;;;;;;3.00;77.37;98960.46;221784;1271;138338;-76
2023/01/26 13:35:54;;;;;;;41.00;26.70;;;;;;;2.95;77.56;98959.48;221550;1273;24152;-76
2023/01/26 13:40:57;;;;;;;40.00;25.50;;;;;;;2.95;77.48;98956.08;221639;1280;137917;-76
2023/01/26 13:46:19;;;;;;;38.40;25.20;;;;;;;2.93;77.53;98955.34;221496;1279;138231;-76
2023/01/26 13:51:26;;;;;;;38.70;26.20;;;;;;;2.85;77.24;98955.11;221403;1278;138517;-77
2023/01/26 13:56:34;;;;;;;43.60;28.00;;;;;;;2.81;77.47;98950.58;221795;1257;139400;-74
2023/01/26 14:01:42;;;;;;;38.60;24.50;;;;;;;2.79;77.30;98947.92;221651;1273;138250;-75
2023/01/26 14:06:57;;;;;;;39.60;24.70;;;;;;;2.78;77.65;98943.42;221608;1266;138338;-75
2023/01/26 14:12:03;;;;;;;40.40;24.70;;;;;;;2.81;77.55;98947.27;221586;1263;26374;-75
2023/01/26 14:17:21;;;;;;;37.50;24.60;;;;;;;2.81;77.42;98946.11;221389;1273;137992;-75
2023/01/26 14:22:25;;;;;;;33.20;21.40;;;;;;;2.80;77.61;98940.68;221916;1279;138126;-74
2023/01/26 14:27:40;;;;;;;35.00;21.50;;;;;;;2.75;77.38;98936.05;221325;1274;139382;-75
2023/01/26 14:32:42;;;;;;;31.30;19.00;;;;;;;2.68;77.20;98942.91;221793;1273;138810;-76
2023/01/26 14:37:49;;;;;;;32.40;18.80;;;;;;;2.63;77.46;98944.21;221418;1275;261076;-74
2023/01/26 14:42:57;;;;;;;29.40;18.60;;;;;;;2.61;77.44;98947.52;221511;1275;138436;-75
2023/01/26 14:48:07;;;;;;;31.40;18.80;;;;;;;2.54;77.54;98949.01;221734;1280;22536;-75
2023/01/26 14:53:24;;;;;;;30.10;18.40;;;;;;;2.51;77.12;98947.42;221476;1278;137729;-75
2023/01/26 14:58:29;;;;;;;28.20;17.50;;;;;;;2.48;77.58;98929.54;221590;1269;138206;-74
2023/01/26 15:03:52;;;;;;;29.70;16.50;;;;;;;2.44;77.45;98934.38;221450;1276;138222;-73
2023/01/26 15:09:01;;;;;;;25.40;14.80;;;;;;;2.41;77.21;98931.39;221322;1276;22589;-76
2023/01/26 15:14:04;;;;;;;25.70;15.50;;;;;;;2.31;76.75;98932.09;221284;1280;22611;-77
2023/01/26 15:19:22;;;;;;;22.60;14.50;;;;;;;2.25;76.99;98937.81;221371;1280;22782;-75
2023/01/26 15:24:24;;;;;;;25.90;16.20;;;;;;;2.15;76.87;98938.14;221290;1276;22641;-75
2023/01/26 15:29:31;;;;;;;24.30;15.60;;;;;;;2.10;77.13;98939.23;221441;1259;22559;-75
2023/01/26 15:34:39;;;;;;;27.40;17.10;;;;;;;2.08;77.23;98945.00;221331;1279;22574;-76
2023/01/26 15:39:42;;;;;;;25.80;16.20;;;;;;;2.06;77.27;98949.02;221331;1278;22682;-75
2023/01/26 15:44:44;;;;;;;34.70;18.50;;;;;;;2.04;77.50;98944.14;221279;1278;25249;-74
2023/01/26 15:49:47;;;;;;;32.00;20.00;;;;;;;2.02;77.11;98946.25;221152;1275;27305;-75
2023/01/26 15:54:51;;;;;;;33.40;19.30;;;;;;;1.94;77.48;98945.30;221589;1278;22582;-75
2023/01/26 15:59:53;;;;;;;37.10;20.30;;;;;;;1.90;77.38;98939.80;221262;1278;22545;-75
2023/01/26 16:04:56;;;;;;;37.40;20.50;;;;;;;1.87;77.59;98942.34;221414;1277;22571;-74
2023/01/26 16:09:58;;;;;;;34.90;20.60;;;;;;;1.81;77.37;98942.80;221347;1276;24304;-75
2023/01/26 16:15:40;;;;;;;35.80;19.50;;;;;;;1.72;77.56;98937.14;221142;1266;25399;-76
2023/01/26 16:20:48;;;;;;;33.70;20.20;;;;;;;1.69;77.33;98935.99;221343;1280;22550;-75
2023/01/26 16:25:53;;;;;;;38.80;21.90;;;;;;;1.72;77.57;98932.95;221390;1278;26393;-76
2023/01/26 16:30:56;;;;;;;37.70;22.30;;;;;;;1.74;77.99;98933.45;221272;1279;22543;-74
2023/01/26 16:35:58;;;;;;;40.80;23.30;;;;;;;1.70;77.88;98933.99;221042;1280;22550;-74
2023/01/26 16:41:01;;;;;;;38.50;23.50;;;;;;;1.65;77.80;98930.71;221466;1280;22579;-75
2023/01/26 16:46:10;;;;;;;42.20;24.70;;;;;;;1.65;77.84;98927.67;221367;1280;22591;-74
2023/01/26 16:51:27;;;;;;;41.30;24.00;;;;;;;1.65;78.02;98927.46;221176;1280;24315;-74
2023/01/26 16:56:31;;;;;;;39.10;23.90;;;;;;;1.64;78.25;98926.86;221473;1276;24237;-74
2023/01/26 17:01:37;;;;;;;42.20;24.70;;;;;;;1.61;78.13;98928.16;221314;1276;26105;-75
2023/01/26 17:06:40;;;;;;;38.40;24.00;;;;;;;1.60;78.07;98936.05;221246;1278;22533;-74
2023/01/26 17:11:44;;;;;;;43.80;25.40;;;;;;;1.57;77.83;98939.91;221258;1278;22602;-76
2023/01/26 17:16:47;;;;;;;43.10;24.50;;;;;;;1.55;78.08;98931.08;221432;1280;22780;-75
2023/01/26 17:21:53;;;;;;;41.30;24.70;;;;;;;1.54;78.00;98930.33;221226;1278;24138;-75
2023/01/26 17:26:55;;;;;;;43.10;24.30;;;;;;;1.52;78.23;98926.99;221185;1271;24365;-75
2023/01/26 17:31:58;;;;;;;39.00;21.80;;;;;;;1.48;78.35;98929.59;221114;1276;25439;-76
2023/01/26 17:37:03;;;;;;;29.30;18.10;;;;;;;1.44;78.20;98930.14;221296;1280;24125;-75
2023/01/26 17:42:06;;;;;;;32.60;17.00;;;;;;;1.38;78.03;98932.96;221450;1277;25416;-75
2023/01/26 17:47:08;;;;;;;25.30;16.20;;;;;;;1.33;77.91;98933.45;221413;1273;22576;-75
2023/01/26 17:52:13;;;;;;;57.20;33.00;;;;;;;1.29;78.10;98933.94;221273;1278;22534;-76
2023/01/26 17:57:18;;;;;;;26.50;16.50;;;;;;;1.28;77.89;98942.70;221428;1276;22564;-75
2023/01/26 18:02:20;;;;;;;29.10;16.40;;;;;;;1.27;77.97;98947.11;221209;1279;25493;-76
2023/01/26 18:07:24;;;;;;;25.20;16.40;;;;;;;1.25;78.07;98954.20;221232;1275;25357;-75
2023/01/26 18:12:26;;;;;;;28.70;16.80;;;;;;;1.21;77.95;98952.12;221205;1280;23200;-75
2023/01/26 18:17:29;;;;;;;25.80;15.30;;;;;;;1.17;78.16;98955.96;221393;1280;25370;-75
2023/01/26 18:22:31;;;;;;;29.60;16.10;;;;;;;1.16;78.19;98956.35;220991;1270;24306;-75
2023/01/26 18:27:33;;;;;;;26.10;15.90;;;;;;;1.15;78.19;98955.23;221275;1278;24294;-75
2023/01/26 18:32:36;;;;;;;23.40;15.30;;;;;;;1.12;78.22;98953.24;221444;1280;24520;-75
2023/01/26 18:37:38;;;;;;;25.40;15.50;;;;;;;1.11;78.19;98954.55;221410;1272;22796;-75
2023/01/26 18:42:40;;;;;;;26.10;15.50;;;;;;;1.06;78.26;98952.95;221340;1275;22540;-76
2023/01/26 18:47:43;;;;;;;31.80;18.00;;;;;;;1.00;78.17;98947.07;221277;1275;24417;-76
2023/01/26 18:52:46;;;;;;;31.20;16.60;;;;;;;0.96;78.41;98945.61;221279;1280;22537;-75
2023/01/26 18:57:49;;;;;;;29.70;17.30;;;;;;;0.98;78.79;98948.40;221219;1280;22577;-75
2023/01/26 19:02:52;;;;;;;32.00;18.70;;;;;;;0.98;78.77;98949.65;221459;1275;24361;-77
2023/01/26 19:07:54;;;;;;;30.30;18.90;;;;;;;0.95;78.67;98943.68;221451;1276;25317;-75
2023/01/26 19:12:57;;;;;;;32.20;19.30;;;;;;;0.92;78.55;98942.98;221395;1278;24195;-76
2023/01/26 19:18:00;;;;;;;34.00;19.90;;;;;;;0.90;78.69;98947.52;221341;1280;22536;-74
2023/01/26 19:23:03;;;;;;;31.50;19.00;;;;;;;0.84;78.68;98950.77;221473;1276;22547;-75
2023/01/26 19:28:06;;;;;;;36.70;20.10;;;;;;;0.81;78.72;98954.52;221294;1279;26135;-76
2023/01/26 19:33:26;;;;;;;32.20;19.60;;;;;;;0.81;78.92;98954.15;221043;1279;26591;-76
2023/01/26 19:38:32;;;;;;;52.90;25.80;;;;;;;0.85;79.22;98953.29;221196;1277;22682;-76
2023/01/26 19:43:35;;;;;;;34.80;20.20;;;;;;;0.87;78.90;98959.60;221441;1280;26422;-76
2023/01/26 19:48:38;;;;;;;31.00;18.20;;;;;;;0.86;79.08;98954.96;221422;1276;22540;-76
2023/01/26 19:53:43;;;;;;;27.80;16.60;;;;;;;0.85;78.92;98956.79;221585;1275;22627;-75
2023/01/26 19:58:56;;;;;;;25.90;14.80;;;;;;;0.87;79.09;98961.52;221402;1275;22539;-78
2023/01/26 20:04:01;;;;;;;77.90;49.00;;;;;;;0.90;79.05;98953.38;221402;1275;22557;-75
2023/01/26 20:09:06;;;;;;;32.70;19.80;;;;;;;0.94;79.13;98947.58;221546;1275;22548;-75
2023/01/26 20:14:09;;;;;;;44.10;23.20;;;;;;;0.96;79.04;98943.73;221227;1275;22539;-76
2023/01/26 20:19:16;;;;;;;55.10;27.50;;;;;;;0.98;79.04;98941.00;221375;1275;22536;-75
2023/01/26 20:24:18;;;;;;;59.00;29.20;;;;;;;1.00;79.14;98944.14;221193;1280;22537;-75
2023/01/26 20:29:22;;;;;;;63.80;30.30;;;;;;;1.02;78.94;98940.31;221385;1272;22551;-75
2023/01/26 20:34:24;;;;;;;81.80;34.20;;;;;;;1.04;78.99;98938.88;221324;1278;22779;-76
2023/01/26 20:39:26;;;;;;;56.60;25.30;;;;;;;1.04;79.12;98934.89;221158;1280;23765;-75
2023/01/26 20:44:30;;;;;;;58.90;26.30;;;;;;;1.06;78.82;98929.37;221399;1280;22550;-75
2023/01/26 20:49:33;;;;;;;66.90;29.90;;;;;;;1.07;78.72;98926.03;221453;1275;23770;-76
2023/01/26 20:54:36;;;;;;;43.90;23.90;;;;;;;1.08;78.77;98924.09;221388;1278;22499;-76
2023/01/26 20:59:38;;;;;;;40.60;23.30;;;;;;;1.09;78.90;98922.27;221143;1279;22680;-75
2023/01/26 21:04:41;;;;;;;42.40;24.00;;;;;;;1.05;78.31;98918.54;221256;1278;22536;-75
2023/01/26 21:09:44;;;;;;;77.80;43.30;;;;;;;1.02;78.52;98917.80;221506;1272;24379;-76
2023/01/26 21:14:47;;;;;;;39.20;22.00;;;;;;;0.99;78.65;98918.04;221184;1278;23834;-74
2023/01/26 21:19:50;;;;;;;41.00;22.40;;;;;;;0.92;78.43;98918.20;221377;1278;23036;-75
2023/01/26 21:24:53;;;;;;;47.80;24.20;;;;;;;0.89;78.89;98920.19;221345;1275;22662;-74
2023/01/26 21:29:56;;;;;;;39.50;21.90;;;;;;;0.91;78.66;98918.48;221168;1279;25428;-76
2023/01/26 21:35:01;;;;;;;40.20;21.20;;;;;;;0.91;78.65;98917.08;221158;1256;22540;-75
2023/01/26 21:40:05;;;;;;;41.00;21.90;;;;;;;0.89;78.47;98909.42;221305;1279;23898;-75
2023/01/26 21:55:54;;;;;;;47.70;25.50;;;;;;;0.85;78.81;98911.92;221288;1278;22668;-75
2023/01/26 22:01:07;;;;;;;54.50;29.10;;;;;;;0.83;78.58;98906.48;221354;1275;22669;-75
2023/01/26 22:06:13;;;;;;;58.80;27.90;;;;;;;0.84;78.61;98905.06;221378;1273;22559;-75
2023/01/26 22:11:19;;;;;;;52.80;27.20;;;;;;;0.82;78.50;98903.30;221347;1280;23009;-74
2023/01/26 22:16:22;;;;;;;41.00;22.80;;;;;;;0.79;78.70;98899.48;221351;1278;22769;-76
2023/01/26 22:21:25;;;;;;;35.90;21.10;;;;;;;0.79;78.50;98896.09;221440;1278;23234;-75
2023/01/26 22:26:27;;;;;;;38.80;22.20;;;;;;;0.77;78.50;98895.21;221155;1278;25269;-74
2023/01/26 22:31:32;;;;;;;38.00;20.30;;;;;;;0.74;78.66;98889.00;221266;1280;24221;-75
2023/01/26 22:36:34;;;;;;;39.50;21.40;;;;;;;0.74;78.34;98885.60;221174;1278;25362;-75
2023/01/26 22:41:38;;;;;;;39.20;21.60;;;;;;;0.72;78.58;98882.98;221430;1278;22543;-75
2023/01/26 22:46:41;;;;;;;42.80;23.10;;;;;;;0.72;78.52;98884.36;221592;1280;25481;-75
2023/01/26 22:51:43;;;;;;;56.10;27.20;;;;;;;0.70;78.08;98887.24;221321;1280;25403;-75
2023/01/26 22:56:45;;;;;;;61.10;30.90;;;;;;;0.71;78.44;98891.02;221320;1278;24410;-76
2023/01/26 23:01:48;;;;;;;54.60;27.20;;;;;;;0.74;78.79;98886.26;221138;1279;22940;-75
2023/01/26 23:06:50;;;;;;;49.70;25.20;;;;;;;0.73;78.76;98882.72;221162;1279;22658;-75
2023/01/26 23:11:52;;;;;;;44.60;23.80;;;;;;;0.68;78.36;98884.43;221391;1280;22619;-75
2023/01/26 23:16:55;;;;;;;40.30;21.80;;;;;;;0.68;78.53;98881.88;221184;1279;22712;-75
2023/01/26 23:22:10;;;;;;;37.70;20.90;;;;;;;0.65;78.49;98882.83;221238;1275;22536;-75
2023/01/26 23:27:13;;;;;;;36.40;21.40;;;;;;;0.64;78.42;98883.02;221170;1280;22536;-76
2023/01/26 23:32:16;;;;;;;41.60;22.10;;;;;;;0.66;78.61;98881.51;221207;1278;22530;-74
2023/01/26 23:37:19;;;;;;;42.50;23.60;;;;;;;0.67;78.46;98882.27;221182;1280;24234;-76
2023/01/26 23:42:22;;;;;;;48.20;25.10;;;;;;;0.65;78.44;98883.13;221542;1280;23404;-74
2023/01/26 23:47:24;;;;;;;38.80;22.80;;;;;;;0.58;78.67;98881.27;221216;1279;24151;-75
2023/01/26 23:52:27;;;;;;;39.80;21.40;;;;;;;0.53;78.75;98880.53;221422;1278;22657;-74
2023/01/26 23:57:30;;;;;;;39.30;21.80;;;;;;;0.52;78.76;98879.55;221495;1276;22587;-74
